Time;durP1;ratioP1;P1;durP2;ratioP2;P2;SDS_P1;SDS_P2;PMS_P1;PMS_P2;Temp;Humidity;BMP_temperature;BMP_pressure;BME280_temperature;BME280_humidity;BME280_pressure;Samples;Min_cycle;Max_cycle;Signal;HPM_P1;HPM_P2
2022/09/17 00:01:48;;;;;;;12.88;4.28;;;10.50;99.90;;;;;;4962305;28;90796;-34
2022/09/17 00:04:13;;;;;;;16.40;4.18;;;10.50;99.90;;;;;;4963257;28;89890;-29
2022/09/17 00:06:39;;;;;;;16.77;4.32;;;10.40;99.90;;;;;;4962862;28;88410;-30
2022/09/17 00:09:06;;;;;;;15.68;3.67;;;10.30;99.90;;;;;;4964130;28;88486;-31
2022/09/17 00:11:35;;;;;;;9.73;3.75;;;10.30;99.90;;;;;;4963159;28;90195;-32
2022/09/17 00:14:03;;;;;;;13.98;3.30;;;10.30;99.90;;;;;;4963495;28;91001;-30
2022/09/17 00:16:30;;;;;;;19.75;4.57;;;10.20;99.90;;;;;;4962745;28;89499;-28
2022/09/17 00:18:57;;;;;;;9.88;4.97;;;10.20;99.90;;;;;;4963330;28;88183;-29
2022/09/17 00:21:23;;;;;;;19.90;4.30;;;10.10;99.90;;;;;;4963023;28;90349;-29
2022/09/17 00:23:57;;;;;;;10.77;3.33;;;10.10;99.90;;;;;;4963405;28;89788;-29
2022/09/17 00:26:23;;;;;;;16.92;3.72;;;10.10;99.90;;;;;;4963840;28;88358;-31
2022/09/17 00:28:50;;;;;;;22.23;3.88;;;10.00;99.90;;;;;;4963115;28;90447;-30
2022/09/17 00:31:16;;;;;;;26.57;5.10;;;10.00;99.90;;;;;;4962323;28;89880;-30
2022/09/17 00:33:42;;;;;;;15.77;3.72;;;10.00;99.90;;;;;;4963015;28;89632;-30
2022/09/17 00:36:07;;;;;;;17.40;4.22;;;9.90;99.90;;;;;;4962998;28;88852;-31
2022/09/17 00:38:34;;;;;;;13.20;3.28;;;9.90;99.90;;;;;;4958373;28;87925;-32
2022/09/17 00:41:00;;;;;;;10.88;4.07;;;9.90;99.90;;;;;;4993440;22;92055;-30
2022/09/17 00:43:39;;;;;;;13.20;4.60;;;9.90;99.90;;;;;;4982144;28;89798;-29
2022/09/17 00:46:28;;;;;;;15.10;4.53;;;9.90;99.90;;;;;;4983245;28;87509;-31
2022/09/17 00:48:55;;;;;;;22.55;4.10;;;9.80;99.90;;;;;;4982770;28;89988;-30
2022/09/17 00:51:27;;;;;;;11.23;3.97;;;9.80;99.90;;;;;;4982201;28;90713;-31
2022/09/17 00:53:53;;;;;;;12.82;4.30;;;9.80;99.90;;;;;;4981947;28;90757;-30
2022/09/17 00:56:24;;;;;;;9.20;3.17;;;9.70;99.90;;;;;;4982759;28;88783;-31
2022/09/17 00:58:51;;;;;;;15.88;3.33;;;9.70;99.90;;;;;;4982485;28;87521;-29
2022/09/17 01:01:17;;;;;;;8.27;3.47;;;9.70;99.90;;;;;;4981679;28;90207;-30
2022/09/17 01:03:43;;;;;;;11.57;3.70;;;9.60;99.90;;;;;;4982074;28;89664;-30
2022/09/17 01:06:41;;;;;;;9.90;3.03;;;9.60;99.90;;;;;;4982786;28;89537;-31
2022/09/17 01:09:28;;;;;;;10.10;2.85;;;9.60;99.90;;;;;;4982948;28;88137;-32
2022/09/17 01:12:15;;;;;;;10.80;3.30;;;9.50;99.90;;;;;;4982347;28;90204;-32
2022/09/17 01:15:13;;;;;;;10.95;3.53;;;9.50;99.90;;;;;;4982255;28;88675;-28
2022/09/17 01:17:48;;;;;;;15.35;4.40;;;9.50;99.90;;;;;;4981693;28;88150;-28
2022/09/17 01:20:44;;;;;;;14.82;3.55;;;9.50;99.90;;;;;;4981992;28;88307;-31
2022/09/17 01:23:58;;;;;;;9.55;3.20;;;9.40;99.90;;;;;;4981512;28;90206;-29
2022/09/17 01:27:01;;;;;;;13.68;3.33;;;9.50;99.90;;;;;;4982074;28;89774;-29
2022/09/17 01:29:34;;;;;;;14.98;3.25;;;9.40;99.90;;;;;;4982109;28;88576;-28
2022/09/17 01:32:11;;;;;;;11.23;4.22;;;9.40;99.90;;;;;;4982963;28;88924;-31
2022/09/17 01:34:49;;;;;;;19.48;4.18;;;9.40;99.90;;;;;;4982455;28;89763;-29
2022/09/17 01:37:23;;;;;;;13.18;2.88;;;9.40;99.90;;;;;;4982172;28;90170;-29
2022/09/17 01:39:59;;;;;;;15.02;3.20;;;9.40;99.90;;;;;;4981919;28;89085;-31
2022/09/17 01:42:30;;;;;;;12.80;3.30;;;9.40;99.90;;;;;;4981628;28;92120;-28
2022/09/17 01:45:07;;;;;;;8.70;3.30;;;9.40;99.90;;;;;;4981850;28;90155;-29
2022/09/17 01:47:42;;;;;;;9.82;2.85;;;9.40;99.90;;;;;;4980318;28;89741;-31
2022/09/17 01:50:13;;;;;;;13.63;4.40;;;9.40;99.90;;;;;;4981832;28;90443;-28
2022/09/17 01:52:42;;;;;;;9.35;2.72;;;9.40;99.90;;;;;;4981519;28;87471;-32
2022/09/17 01:55:13;;;;;;;19.17;4.30;;;9.40;99.90;;;;;;4981115;28;90340;-29
2022/09/17 01:57:46;;;;;;;8.68;3.15;;;9.40;99.90;;;;;;4981776;28;90251;-31
2022/09/17 02:00:15;;;;;;;6.45;2.50;;;9.40;99.90;;;;;;4982558;28;88284;-34
2022/09/17 02:03:29;;;;;;;7.40;3.20;;;9.40;99.90;;;;;;4982222;28;89470;-30
2022/09/17 02:06:03;;;;;;;5.95;2.40;;;9.40;99.90;;;;;;4968369;28;90155;-31
2022/09/17 02:08:35;;;;;;;8.20;3.08;;;9.40;99.90;;;;;;4981219;28;89749;-32
2022/09/17 02:11:10;;;;;;;10.35;2.83;;;9.40;99.90;;;;;;4981941;28;89938;-29
2022/09/17 02:13:54;;;;;;;6.35;2.70;;;9.30;99.90;;;;;;4968859;28;89923;-29
2022/09/17 02:16:29;;;;;;;5.72;2.72;;;9.40;99.90;;;;;;4980726;28;90018;-31
2022/09/17 02:19:22;;;;;;;14.02;3.85;;;9.30;99.90;;;;;;4981604;28;90167;-30
2022/09/17 02:22:08;;;;;;;9.27;2.55;;;9.30;99.90;;;;;;4981307;28;89117;-32
2022/09/17 02:24:57;;;;;;;16.98;3.05;;;9.30;99.90;;;;;;4980097;28;88459;-31
2022/09/17 02:27:45;;;;;;;6.50;1.98;;;9.30;99.90;;;;;;4968664;28;90358;-33
2022/09/17 02:30:12;;;;;;;13.50;3.60;;;9.30;99.90;;;;;;4981008;28;88936;-28
2022/09/17 02:32:38;;;;;;;15.38;2.88;;;9.30;99.90;;;;;;4981410;28;88229;-29
2022/09/17 02:35:05;;;;;;;13.07;3.80;;;9.20;99.90;;;;;;4981424;28;90036;-28
2022/09/17 02:37:31;;;;;;;10.25;3.17;;;9.20;99.90;;;;;;4980882;28;90704;-29
2022/09/17 02:39:57;;;;;;;8.05;2.42;;;9.20;99.90;;;;;;4980929;28;89661;-30
2022/09/17 02:43:15;;;;;;;13.63;3.45;;;9.20;99.90;;;;;;4980801;28;87721;-29
2022/09/17 02:46:14;;;;;;;6.30;2.33;;;9.20;99.90;;;;;;4980335;28;87650;-29
2022/09/17 02:49:01;;;;;;;11.30;3.38;;;9.10;99.90;;;;;;4981098;28;89895;-32
2022/09/17 02:51:34;;;;;;;9.95;3.35;;;9.10;99.90;;;;;;4980993;28;88698;-29
2022/09/17 02:54:09;;;;;;;12.90;3.22;;;9.10;99.90;;;;;;4981321;28;87993;-30
2022/09/17 02:56:56;;;;;;;7.45;2.67;;;9.10;99.90;;;;;;4981040;28;88379;-29
2022/09/17 02:59:36;;;;;;;15.90;4.30;;;9.10;99.90;;;;;;4979766;28;90610;-32
2022/09/17 03:02:17;;;;;;;7.88;3.13;;;9.10;99.90;;;;;;4980560;28;89752;-29
2022/09/17 03:04:45;;;;;;;12.63;4.45;;;9.10;99.90;;;;;;4980821;28;87936;-30
2022/09/17 03:07:11;;;;;;;;;;;9.20;99.90;;;;;;4981743;28;89919;-29
2022/09/17 03:09:38;;;;;;;15.32;2.75;;;9.20;99.90;;;;;;4982227;28;90171;-30
2022/09/17 03:12:04;;;;;;;15.90;2.85;;;9.20;99.90;;;;;;4981490;28;89652;-27
2022/09/17 03:14:29;;;;;;;11.48;2.92;;;9.30;99.90;;;;;;4980627;28;89740;-31
2022/09/17 03:16:56;;;;;;;12.00;3.65;;;9.40;99.90;;;;;;4981034;28;89862;-33
2022/09/17 03:19:22;;;;;;;15.57;4.35;;;9.30;99.90;;;;;;4980180;28;90237;-29
2022/09/17 03:21:48;;;;;;;19.40;3.40;;;9.30;99.90;;;;;;4980655;28;88831;-29
2022/09/17 03:24:13;;;;;;;10.63;2.90;;;9.30;99.90;;;;;;4980830;28;89957;-34
2022/09/17 03:26:39;;;;;;;11.52;3.20;;;9.30;99.90;;;;;;4980319;28;88664;-31
2022/09/17 03:29:04;;;;;;;8.10;3.13;;;9.30;99.90;;;;;;4979648;28;90309;-31
2022/09/17 03:31:30;;;;;;;10.95;4.35;;;9.20;99.90;;;;;;4980255;28;89449;-29
2022/09/17 03:33:57;;;;;;;10.88;3.72;;;9.20;99.90;;;;;;4980486;28;89630;-29
2022/09/17 03:36:23;;;;;;;15.60;2.83;;;9.20;99.90;;;;;;4984502;28;89434;-33
2022/09/17 03:38:56;;;;;;;7.15;2.17;;;9.20;99.90;;;;;;4983952;28;92008;-28
2022/09/17 03:41:22;;;;;;;8.40;3.22;;;9.20;99.90;;;;;;4983467;28;89283;-30
2022/09/17 03:43:47;;;;;;;10.32;3.25;;;9.20;99.90;;;;;;4983969;28;88650;-31
2022/09/17 03:46:13;;;;;;;9.63;2.03;;;9.20;99.90;;;;;;4984120;28;89352;-32
2022/09/17 03:48:38;;;;;;;9.13;3.20;;;9.20;99.90;;;;;;4983453;28;90508;-28
2022/09/17 03:51:05;;;;;;;7.05;2.72;;;9.20;99.90;;;;;;4983423;28;89111;-28
2022/09/17 03:53:31;;;;;;;9.68;3.13;;;9.20;99.90;;;;;;4983306;28;88242;-29
2022/09/17 03:55:59;;;;;;;11.02;3.30;;;9.20;99.90;;;;;;4984122;28;90119;-29
2022/09/17 03:58:25;;;;;;;15.88;3.28;;;9.10;99.90;;;;;;4983930;28;89226;-30
2022/09/17 04:00:52;;;;;;;15.25;2.60;;;9.10;99.90;;;;;;4983259;28;90049;-32
2022/09/17 04:03:18;;;;;;;11.80;3.35;;;9.10;99.90;;;;;;4983886;28;87731;-31
2022/09/17 04:05:44;;;;;;;8.82;2.83;;;9.10;99.90;;;;;;4983194;28;88127;-29
2022/09/17 04:08:09;;;;;;;11.65;2.60;;;9.10;99.90;;;;;;4983400;28;90118;-33
2022/09/17 04:10:35;;;;;;;9.45;3.65;;;9.10;99.90;;;;;;4983499;28;91083;-28
2022/09/17 04:13:01;;;;;;;10.48;2.72;;;9.30;99.90;;;;;;4983647;28;88629;-29
2022/09/17 04:15:26;;;;;;;7.22;2.45;;;9.30;99.90;;;;;;4983380;28;87661;-28
2022/09/17 04:17:56;;;;;;;11.07;2.55;;;9.40;99.90;;;;;;4982326;28;89969;-28
2022/09/17 04:20:23;;;;;;;7.57;2.67;;;9.40;99.90;;;;;;4982401;28;90477;-29
2022/09/17 04:22:49;;;;;;;13.68;3.72;;;9.40;99.90;;;;;;4983205;28;87704;-30
2022/09/17 04:25:14;;;;;;;7.68;2.53;;;9.40;99.90;;;;;;4983615;28;90140;-28
2022/09/17 04:27:40;;;;;;;19.35;3.15;;;9.40;99.90;;;;;;4983169;28;90221;-29
2022/09/17 04:30:06;;;;;;;7.43;3.13;;;9.40;99.90;;;;;;4983153;28;90010;-31
2022/09/17 04:32:32;;;;;;;5.38;2.30;;;9.40;99.90;;;;;;4983047;28;89166;-28
2022/09/17 04:34:57;;;;;;;10.05;3.17;;;9.30;99.90;;;;;;4983151;28;87687;-31
2022/09/17 04:37:24;;;;;;;12.82;2.88;;;9.30;99.90;;;;;;4982739;28;90226;-32
2022/09/17 04:39:50;;;;;;;6.97;2.90;;;9.30;99.90;;;;;;4981854;28;87969;-31
2022/09/17 04:42:16;;;;;;;8.45;2.00;;;9.30;99.90;;;;;;4982613;28;89278;-31
2022/09/17 04:44:41;;;;;;;8.52;3.30;;;9.20;99.90;;;;;;4982822;28;88606;-33
2022/09/17 04:47:07;;;;;;;12.70;3.00;;;9.20;99.90;;;;;;4982361;28;90445;-29
2022/09/17 04:49:32;;;;;;;4.95;2.17;;;9.10;99.90;;;;;;4982249;28;90238;-30
2022/09/17 04:51:58;;;;;;;8.45;2.42;;;9.10;99.90;;;;;;4982689;28;89113;-29
2022/09/17 04:54:24;;;;;;;3.33;1.67;;;9.10;99.90;;;;;;4983106;28;87693;-31
2022/09/17 04:56:50;;;;;;;7.97;2.38;;;9.10;99.90;;;;;;4982382;28;90382;-30
2022/09/17 04:59:16;;;;;;;6.00;2.22;;;9.00;99.90;;;;;;4982328;28;88638;-30
2022/09/17 05:01:42;;;;;;;6.93;3.22;;;9.00;99.90;;;;;;4982331;28;90696;-30
2022/09/17 05:04:08;;;;;;;9.23;2.92;;;9.00;99.90;;;;;;4982527;28;87815;-30
2022/09/17 05:06:34;;;;;;;5.38;2.10;;;9.00;99.90;;;;;;4982995;28;90224;-31
2022/09/17 05:09:00;;;;;;;10.23;2.00;;;8.90;99.90;;;;;;4982197;28;89984;-29
2022/09/17 05:11:27;;;;;;;6.50;2.90;;;8.90;99.90;;;;;;4982963;28;89389;-28
2022/09/17 05:13:52;;;;;;;9.13;2.75;;;8.90;99.90;;;;;;4983160;28;88946;-31
2022/09/17 05:16:19;;;;;;;8.60;2.80;;;8.90;99.90;;;;;;4982060;28;89981;-29
2022/09/17 05:18:44;;;;;;;11.57;2.88;;;8.90;99.90;;;;;;4982316;28;89650;-30
2022/09/17 05:21:10;;;;;;;8.30;2.97;;;8.90;99.90;;;;;;4982704;28;88343;-29
2022/09/17 05:23:35;;;;;;;5.32;2.00;;;8.90;99.90;;;;;;4982392;28;89896;-29
2022/09/17 05:26:01;;;;;;;4.95;2.33;;;8.80;99.90;;;;;;4982561;28;89976;-31
2022/09/17 05:28:28;;;;;;;8.18;2.30;;;8.80;99.90;;;;;;4980974;28;89365;-33
2022/09/17 05:30:57;;;;;;;7.15;2.38;;;8.80;99.90;;;;;;4981274;28;87526;-30
2022/09/17 05:33:22;;;;;;;2.33;1.95;;;8.90;99.90;;;;;;4982398;28;89304;-29
2022/09/17 05:35:48;;;;;;;10.82;2.15;;;8.90;99.90;;;;;;4982111;28;90387;-28
2022/09/17 05:38:13;;;;;;;11.90;2.92;;;8.80;99.90;;;;;;4982276;28;89510;-30
2022/09/17 05:40:39;;;;;;;3.25;1.83;;;8.80;99.90;;;;;;4981196;28;89444;-28
2022/09/17 05:43:06;;;;;;;5.85;2.22;;;8.80;99.90;;;;;;4982618;28;89174;-33
2022/09/17 05:45:33;;;;;;;7.43;2.03;;;8.80;99.90;;;;;;4981976;28;90207;-29
2022/09/17 05:48:01;;;;;;;7.30;2.63;;;8.90;99.90;;;;;;4982156;28;89224;-29
2022/09/17 05:50:27;;;;;;;8.13;2.30;;;8.90;99.90;;;;;;4981591;28;87638;-30
2022/09/17 05:52:53;;;;;;;10.23;2.38;;;8.90;99.90;;;;;;4981808;28;89113;-30
2022/09/17 05:55:21;;;;;;;12.10;3.35;;;8.90;99.90;;;;;;4981389;28;89433;-30
2022/09/17 05:57:47;;;;;;;5.85;1.90;;;9.00;99.90;;;;;;4980818;28;88835;-29
2022/09/17 06:00:14;;;;;;;7.78;3.08;;;9.00;99.90;;;;;;4981623;28;88303;-29
2022/09/17 06:02:40;;;;;;;12.05;2.70;;;9.10;99.90;;;;;;4982083;28;87603;-28
2022/09/17 06:05:05;;;;;;;5.93;2.47;;;9.20;99.90;;;;;;4981163;28;90177;-30
2022/09/17 06:07:35;;;;;;;6.72;2.47;;;9.30;99.90;;;;;;4981886;28;90798;-29
2022/09/17 06:10:02;;;;;;;8.77;2.83;;;9.30;99.90;;;;;;4982340;28;88192;-29
2022/09/17 06:12:28;;;;;;;7.78;2.58;;;9.50;99.90;;;;;;4981921;28;89675;-29
2022/09/17 06:14:53;;;;;;;4.40;2.10;;;9.60;99.90;;;;;;4981173;28;88559;-30
2022/09/17 06:17:19;;;;;;;8.85;2.15;;;9.70;99.90;;;;;;4981336;28;89118;-30
2022/09/17 06:19:44;;;;;;;9.93;2.88;;;9.80;99.90;;;;;;4981516;28;89123;-30
2022/09/17 06:22:10;;;;;;;7.15;1.80;;;10.00;99.90;;;;;;4982200;28;88342;-32
2022/09/17 06:24:35;;;;;;;11.82;2.17;;;10.20;99.90;;;;;;4980420;28;90383;-31
2022/09/17 06:27:01;;;;;;;4.22;2.38;;;10.20;99.90;;;;;;4981946;28;89658;-29
2022/09/17 06:29:26;;;;;;;11.10;3.10;;;10.20;99.90;;;;;;4981257;28;87962;-30
2022/09/17 06:31:52;;;;;;;7.35;2.72;;;10.20;99.90;;;;;;4981646;28;87435;-29
2022/09/17 06:34:18;;;;;;;7.15;3.10;;;10.10;99.90;;;;;;4981244;28;90083;-31
2022/09/17 06:36:44;;;;;;;5.72;2.15;;;10.10;99.90;;;;;;4980890;28;89818;-30
2022/09/17 06:39:10;;;;;;;4.85;2.58;;;10.10;99.90;;;;;;4981802;28;88765;-32
2022/09/17 06:41:37;;;;;;;7.65;2.30;;;10.10;99.90;;;;;;4980726;28;87497;-31
2022/09/17 06:44:03;;;;;;;5.53;2.53;;;10.10;99.90;;;;;;4980550;28;89980;-31
2022/09/17 06:46:29;;;;;;;9.43;2.70;;;10.00;99.90;;;;;;4981306;28;90167;-31
2022/09/17 06:48:54;;;;;;;7.63;1.58;;;10.00;99.90;;;;;;4979879;28;88560;-32
2022/09/17 06:51:21;;;;;;;9.13;1.83;;;10.00;99.90;;;;;;4980849;28;89602;-29
2022/09/17 06:53:47;;;;;;;10.02;1.42;;;9.90;99.90;;;;;;4980871;28;89806;-30
2022/09/17 06:56:14;;;;;;;7.55;2.17;;;9.90;99.90;;;;;;4979613;28;89731;-30
2022/09/17 06:58:40;;;;;;;4.70;2.13;;;9.90;99.90;;;;;;4981698;28;88254;-30
2022/09/17 07:01:06;;;;;;;16.35;2.90;;;9.90;99.90;;;;;;4980729;28;87810;-31
2022/09/17 07:03:32;;;;;;;1.83;1.40;;;9.90;99.90;;;;;;4980361;28;90656;-29
2022/09/17 07:05:59;;;;;;;2.92;1.42;;;9.90;99.90;;;;;;4980634;28;90066;-31
2022/09/17 07:08:27;;;;;;;8.68;2.33;;;9.90;99.90;;;;;;4980558;28;88762;-29
2022/09/17 07:10:57;;;;;;;3.13;1.13;;;9.90;99.90;;;;;;4979162;28;89476;-30
2022/09/17 07:13:23;;;;;;;3.88;1.75;;;10.00;99.90;;;;;;4979681;28;90017;-30
2022/09/17 07:15:57;;;;;;;6.18;2.08;;;10.10;99.90;;;;;;4980580;28;89772;-33
2022/09/17 07:18:23;;;;;;;4.97;1.92;;;10.30;99.90;;;;;;4980272;28;88445;-29
2022/09/17 07:20:57;;;;;;;9.50;1.58;;;10.50;99.90;;;;;;4980735;28;87971;-31
2022/09/17 07:23:24;;;;;;;6.18;1.98;;;10.60;99.90;;;;;;4980133;28;89787;-28
2022/09/17 07:26:05;;;;;;;8.20;2.10;;;10.70;99.90;;;;;;4979856;28;89885;-29
2022/09/17 07:28:31;;;;;;;7.28;1.48;;;10.70;99.90;;;;;;4978689;28;88660;-29
2022/09/17 07:30:57;;;;;;;3.30;1.88;;;10.70;99.90;;;;;;4977878;28;89354;-33
2022/09/17 07:33:25;;;;;;;11.48;1.98;;;10.80;99.90;;;;;;4978092;28;89272;-32
2022/09/17 07:35:58;;;;;;;7.22;2.15;;;10.80;99.90;;;;;;4977771;28;89193;-30
2022/09/17 07:38:25;;;;;;;5.47;1.80;;;10.90;99.90;;;;;;4975606;28;89773;-33
2022/09/17 07:40:58;;;;;;;5.78;1.20;;;10.80;99.90;;;;;;4973406;28;89614;-30
2022/09/17 07:43:29;;;;;;;12.88;2.33;;;10.90;99.90;;;;;;4977256;28;90531;-34
2022/09/17 07:45:56;;;;;;;7.18;2.38;;;11.00;99.90;;;;;;4977197;28;89580;-33
2022/09/17 07:48:22;;;;;;;5.87;1.97;;;11.20;99.90;;;;;;4976839;28;88728;-32
2022/09/17 07:50:48;;;;;;;2.65;1.50;;;11.50;99.90;;;;;;4975746;28;89976;-30
2022/09/17 07:53:13;;;;;;;9.23;2.20;;;11.60;99.90;;;;;;4980145;28;90396;-29
2022/09/17 07:55:39;;;;;;;11.93;2.15;;;11.70;99.90;;;;;;4977388;28;89837;-29
2022/09/17 07:58:05;;;;;;;4.35;2.05;;;11.80;99.90;;;;;;4977470;28;88595;-29
2022/09/17 08:00:31;;;;;;;3.42;1.63;;;11.70;99.90;;;;;;4921135;28;89002;-30
2022/09/17 08:02:56;;;;;;;7.13;2.13;;;11.70;99.90;;;;;;4964761;28;90275;-30
2022/09/17 08:05:23;;;;;;;4.43;1.85;;;11.80;99.90;;;;;;4957248;28;90163;-33
2022/09/17 08:07:53;;;;;;;7.38;2.85;;;11.90;99.90;;;;;;4958543;28;89752;-28
2022/09/17 08:10:21;;;;;;;7.00;2.33;;;12.10;99.90;;;;;;4958497;28;87571;-32
2022/09/17 08:12:54;;;;;;;8.57;2.17;;;12.30;99.90;;;;;;4958186;28;91464;-29
2022/09/17 08:15:21;;;;;;;3.55;2.28;;;12.30;99.90;;;;;;4958431;28;89816;-31
2022/09/17 08:17:47;;;;;;;8.07;2.63;;;12.50;99.90;;;;;;4957806;28;89190;-31
2022/09/17 08:20:14;;;;;;;7.00;1.63;;;12.50;99.90;;;;;;4957231;28;87642;-29
2022/09/17 08:22:40;;;;;;;7.72;2.38;;;12.60;99.90;;;;;;4960477;28;89964;-35
2022/09/17 08:25:07;;;;;;;4.70;2.40;;;12.70;99.90;;;;;;4961292;28;90912;-31
2022/09/17 08:27:33;;;;;;;5.05;2.13;;;12.80;99.90;;;;;;4961062;28;88178;-29
2022/09/17 08:29:59;;;;;;;13.85;2.25;;;12.90;99.90;;;;;;4960952;28;87917;-32
2022/09/17 08:32:25;;;;;;;2.72;1.10;;;13.10;99.90;;;;;;4960830;28;89630;-30
2022/09/17 08:34:52;;;;;;;5.68;1.30;;;13.30;99.90;;;;;;4960467;28;89347;-33
2022/09/17 08:37:19;;;;;;;3.00;1.23;;;13.40;99.90;;;;;;4961228;28;87684;-30
2022/09/17 08:39:44;;;;;;;6.13;1.83;;;13.60;99.90;;;;;;4960711;28;89443;-33
2022/09/17 08:42:36;;;;;;;3.53;1.73;;;13.70;99.90;;;;;;4960643;28;90183;-33
2022/09/17 08:45:04;;;;;;;3.70;1.55;;;13.60;99.90;;;;;;4960814;28;89763;-30
2022/09/17 08:47:41;;;;;;;4.38;1.48;;;13.50;99.90;;;;;;4960630;28;88860;-30
2022/09/17 08:50:14;;;;;;;2.67;1.10;;;13.30;99.90;;;;;;4960760;28;89234;-34
2022/09/17 08:52:48;;;;;;;1.95;1.13;;;13.00;99.90;;;;;;4960580;28;88944;-32
2022/09/17 08:55:36;;;;;;;5.22;1.17;;;12.70;99.90;;;;;;4960423;28;89431;-34
2022/09/17 08:58:04;;;;;;;5.45;1.27;;;12.50;99.90;;;;;;4948477;28;88709;-30
2022/09/17 09:01:14;;;;;;;2.78;1.23;;;12.30;99.90;;;;;;4960060;28;89462;-32
2022/09/17 09:04:04;;;;;;;3.30;1.33;;;12.10;99.90;;;;;;4949170;28;89597;-32
2022/09/17 09:06:43;;;;;;;3.13;1.10;;;12.20;99.90;;;;;;4946991;28;90729;-32
2022/09/17 09:09:15;;;;;;;5.18;1.67;;;12.30;99.90;;;;;;4960612;28;88003;-31
2022/09/17 09:11:42;;;;;;;2.10;1.33;;;12.40;99.90;;;;;;4960221;28;88438;-31
2022/09/17 09:14:30;;;;;;;3.55;1.10;;;12.60;99.90;;;;;;4960230;28;90228;-31
2022/09/17 09:16:56;;;;;;;4.82;1.30;;;12.80;99.90;;;;;;4948888;28;89799;-30
2022/09/17 09:19:29;;;;;;;3.83;1.27;;;13.00;99.90;;;;;;4960947;28;87638;-30
2022/09/17 09:22:03;;;;;;;4.80;1.13;;;13.10;99.90;;;;;;4962166;28;89717;-34
2022/09/17 09:24:51;;;;;;;3.08;1.30;;;13.30;99.90;;;;;;4961948;28;90511;-31
2022/09/17 09:27:26;;;;;;;2.28;0.93;;;13.50;99.90;;;;;;4961462;28;90181;-31
2022/09/17 09:30:14;;;;;;;9.30;1.98;;;13.70;99.90;;;;;;4965420;28;87974;-30
2022/09/17 09:32:51;;;;;;;6.40;1.27;;;13.70;99.90;;;;;;4969337;28;89328;-33
2022/09/17 09:35:26;;;;;;;8.60;1.40;;;13.60;99.90;;;;;;4968262;28;90165;-34
2022/09/17 09:38:21;;;;;;;2.85;1.08;;;13.40;99.90;;;;;;4961837;28;89423;-31
2022/09/17 09:41:08;;;;;;;5.43;1.33;;;13.20;99.90;;;;;;4960376;28;89168;-30
2022/09/17 09:43:38;;;;;;;1.77;1.42;;;13.00;99.90;;;;;;4962612;28;89745;-34
2022/09/17 09:46:30;;;;;;;3.83;1.20;;;12.90;99.90;;;;;;4962114;28;90457;-30
2022/09/17 09:49:21;;;;;;;3.25;1.05;;;13.00;99.90;;;;;;4962151;28;90584;-31
2022/09/17 09:52:22;;;;;;;3.97;1.30;;;13.20;99.90;;;;;;4962476;28;87558;-30
2022/09/17 09:55:30;;;;;;;3.58;1.95;;;13.50;99.90;;;;;;4967229;28;87941;-29
2022/09/17 09:58:02;;;;;;;;;;;13.70;99.90;;;;;;4951036;28;90083;-32
2022/09/17 10:00:35;;;;;;;4.85;2.15;;;13.80;99.90;;;;;;4963185;28;89316;-31
2022/09/17 10:03:31;;;;;;;2.80;1.25;;;13.60;99.90;;;;;;4970032;28;88602;-30
2022/09/17 10:06:05;;;;;;;4.60;0.98;;;13.40;99.90;;;;;;4958244;28;89888;-29
2022/09/17 10:08:33;;;;;;;6.28;1.35;;;13.20;99.90;;;;;;4961586;28;90581;-31
2022/09/17 10:11:03;;;;;;;;;;;13.20;99.90;;;;;;4962153;28;89601;-31
2022/09/17 10:13:32;;;;;;;8.57;2.38;;;13.50;99.90;;;;;;4963364;28;88482;-30
2022/09/17 10:16:19;;;;;;;4.88;2.30;;;13.70;99.90;;;;;;4962789;28;88604;-33
2022/09/17 10:18:45;;;;;;;3.40;1.92;;;13.60;99.90;;;;;;4962028;28;90410;-31
2022/09/17 10:21:41;;;;;;;3.15;1.40;;;13.40;99.90;;;;;;4961637;28;89890;-31
2022/09/17 10:24:28;;;;;;;6.18;1.88;;;13.30;99.90;;;;;;4961594;28;89457;-30
2022/09/17 10:27:12;;;;;;;3.22;1.23;;;13.10;99.90;;;;;;4962089;28;87675;-32
2022/09/17 10:29:45;;;;;;;2.80;1.45;;;13.30;99.90;;;;;;4962058;28;90331;-32
2022/09/17 10:32:19;;;;;;;4.45;0.98;;;13.50;99.90;;;;;;4960828;28;89930;-35
2022/09/17 10:35:23;;;;;;;7.72;1.90;;;13.70;99.90;;;;;;4963494;28;87583;-31
2022/09/17 10:37:51;;;;;;;4.05;1.92;;;13.90;99.90;;;;;;4957319;28;87943;-29
2022/09/17 10:40:19;;;;;;;5.70;1.33;;;14.10;99.90;;;;;;4960800;28;90219;-30
2022/09/17 10:42:50;;;;;;;5.20;1.63;;;14.20;99.90;;;;;;4961444;28;89697;-31
2022/09/17 10:45:27;;;;;;;4.65;1.35;;;14.30;99.90;;;;;;4960247;28;89453;-33
2022/09/17 10:47:54;;;;;;;6.63;1.52;;;14.40;99.90;;;;;;4961856;28;89383;-31
2022/09/17 10:50:27;;;;;;;4.07;1.92;;;14.60;99.90;;;;;;4960897;28;90519;-31
2022/09/17 10:53:05;;;;;;;2.88;1.50;;;14.80;99.90;;;;;;4961385;28;89290;-31
2022/09/17 10:56:03;;;;;;;4.88;1.30;;;14.90;99.90;;;;;;4960890;28;88654;-31
2022/09/17 10:58:40;;;;;;;4.47;1.52;;;14.90;99.90;;;;;;4928632;28;89013;-31
2022/09/17 11:01:30;;;;;;;1.93;1.23;;;15.00;99.90;;;;;;4962885;28;91099;-31
2022/09/17 11:04:24;;;;;;;5.63;1.77;;;15.00;99.90;;;;;;4961465;28;89422;-32
2022/09/17 11:07:13;;;;;;;8.07;1.73;;;15.00;99.90;;;;;;4949995;28;87931;-32
2022/09/17 11:10:02;;;;;;;2.95;1.42;;;14.80;99.90;;;;;;4960727;28;88415;-32
2022/09/17 11:12:35;;;;;;;6.47;2.05;;;14.50;99.90;;;;;;4961170;28;89870;-31
2022/09/17 11:15:19;;;;;;;4.82;1.70;;;14.10;99.90;;;;;;4961389;28;89934;-32
2022/09/17 11:18:18;;;;;;;3.85;1.63;;;13.60;99.90;;;;;;4958290;28;89999;-32
2022/09/17 11:20:52;;;;;;;4.65;1.73;;;13.20;99.90;;;;;;4959346;28;88848;-31
2022/09/17 11:24:04;;;;;;;2.50;1.20;;;13.00;99.90;;;;;;4959396;28;90940;-34
2022/09/17 11:26:56;;;;;;;2.22;1.30;;;13.00;99.90;;;;;;4959395;28;89748;-31
2022/09/17 11:29:36;;;;;;;15.10;2.25;;;13.00;99.90;;;;;;4957987;28;87779;-33
2022/09/17 11:32:24;;;;;;;5.70;2.13;;;13.00;99.90;;;;;;4959798;28;90210;-35
2022/09/17 11:35:14;;;;;;;5.40;1.48;;;13.00;99.90;;;;;;4958845;28;90347;-32
2022/09/17 11:37:48;;;;;;;7.85;1.45;;;12.90;99.90;;;;;;4958477;28;89638;-31
2022/09/17 11:40:24;;;;;;;3.90;1.65;;;12.80;99.90;;;;;;4958700;28;88702;-34
2022/09/17 11:43:03;;;;;;;3.58;1.40;;;12.70;99.90;;;;;;4958557;28;89470;-29
2022/09/17 11:45:33;;;;;;;7.22;2.30;;;12.80;99.90;;;;;;4957872;28;91094;-31
2022/09/17 11:48:09;;;;;;;8.93;1.55;;;12.90;99.90;;;;;;4958997;28;89975;-31
2022/09/17 11:50:49;;;;;;;9.70;1.25;;;13.10;99.90;;;;;;4958769;28;89701;-34
2022/09/17 11:53:22;;;;;;;4.20;2.25;;;13.30;99.90;;;;;;4958391;28;89216;-30
2022/09/17 11:56:13;;;;;;;3.08;1.38;;;13.40;99.90;;;;;;4959343;28;90520;-30
2022/09/17 11:59:02;;;;;;;5.45;1.85;;;13.40;99.90;;;;;;4962679;28;90507;-30
2022/09/17 12:01:37;;;;;;;6.45;1.27;;;13.40;99.90;;;;;;4949713;28;88259;-31
2022/09/17 12:04:27;;;;;;;10.05;1.40;;;13.30;99.90;;;;;;4961934;28;89857;-31
2022/09/17 12:07:00;;;;;;;3.75;1.90;;;13.20;99.90;;;;;;4962045;28;89832;-29
2022/09/17 12:09:30;;;;;;;5.25;1.25;;;13.20;99.90;;;;;;4961704;28;89708;-32
2022/09/17 12:12:20;;;;;;;3.80;1.63;;;13.30;99.90;;;;;;4962101;28;88327;-32
2022/09/17 12:14:56;;;;;;;4.97;2.00;;;13.20;99.90;;;;;;4958342;28;89237;-33
2022/09/17 12:17:36;;;;;;;6.10;1.83;;;13.30;99.90;;;;;;4952982;28;89297;-34
2022/09/17 12:20:08;;;;;;;3.03;1.50;;;13.60;99.90;;;;;;4960784;28;88796;-30
2022/09/17 12:22:39;;;;;;;5.13;2.45;;;13.70;99.90;;;;;;4961026;28;88942;-33
2022/09/17 12:25:10;;;;;;;7.38;1.90;;;13.90;99.90;;;;;;4960287;28;88557;-30
2022/09/17 12:27:51;;;;;;;4.88;1.77;;;14.00;99.90;;;;;;4959697;28;90000;-31
2022/09/17 12:30:24;;;;;;;2.38;1.85;;;14.10;99.90;;;;;;4960861;28;89696;-30
2022/09/17 12:33:11;;;;;;;6.05;2.03;;;14.30;99.90;;;;;;4960963;28;87964;-32
2022/09/17 12:36:13;;;;;;;4.80;1.85;;;14.30;99.90;;;;;;4960722;28;89120;-34
2022/09/17 12:39:11;;;;;;;2.30;1.50;;;14.20;99.90;;;;;;4955092;28;90613;-31
2022/09/17 12:41:40;;;;;;;;;;;14.20;99.90;;;;;;4980101;22;91333;-32
2022/09/17 12:44:40;;;;;;;5.53;2.50;;;14.20;99.90;;;;;;4961780;28;88643;-31
2022/09/17 12:47:33;;;;;;;3.10;1.50;;;14.30;99.90;;;;;;4960433;28;89125;-31
2022/09/17 12:50:23;;;;;;;7.55;2.75;;;14.40;99.90;;;;;;4954196;28;90657;-32
2022/09/17 12:53:11;;;;;;;4.78;1.38;;;14.50;99.90;;;;;;4960150;28;89949;-33
2022/09/17 12:55:56;;;;;;;6.07;2.53;;;14.50;99.90;;;;;;4960242;28;89175;-33
2022/09/17 12:58:40;;;;;;;8.18;1.38;;;14.50;99.90;;;;;;4956613;28;90288;-31
2022/09/17 13:01:17;;;;;;;4.13;1.80;;;14.70;99.90;;;;;;4957409;28;89969;-32
2022/09/17 13:03:54;;;;;;;4.93;1.85;;;14.80;99.90;;;;;;4960435;28;89320;-31
2022/09/17 13:06:35;;;;;;;3.67;1.52;;;14.90;99.90;;;;;;4960055;28;88711;-32
2022/09/17 13:09:26;;;;;;;4.88;1.98;;;14.90;99.90;;;;;;4960665;28;90154;-30
2022/09/17 13:12:00;;;;;;;6.32;2.10;;;14.90;99.90;;;;;;4961103;28;91264;-30
2022/09/17 13:14:44;;;;;;;6.85;2.30;;;14.90;99.90;;;;;;4959228;28;88322;-31
2022/09/17 13:17:23;;;;;;;6.75;2.97;;;14.80;99.90;;;;;;4960399;28;89012;-34
2022/09/17 13:20:00;;;;;;;5.90;2.00;;;14.70;99.90;;;;;;4961254;28;89597;-32
2022/09/17 13:22:29;;;;;;;10.57;2.10;;;14.60;99.90;;;;;;4960209;28;90018;-32
2022/09/17 13:25:08;;;;;;;5.22;2.10;;;14.40;99.90;;;;;;4959273;28;90567;-32